sensor_id;sensor_type;location;lat;lon;timestamp;pressure;altitude;pressure_sealevel;temperature;humidity
17311;BME280;8773;43.300;0.394;2023-03-22T00:01:24;99754.19;;;10.04;65.59
17311;BME280;8773;43.300;0.394;2023-03-22T00:03:54;99752.91;;;10.08;65.11
17311;BME280;8773;43.300;0.394;2023-03-22T00:06:23;99743.84;;;10.19;65.05
17311;BME280;8773;43.300;0.394;2023-03-22T00:08:53;99733.16;;;10.19;64.80
17311;BME280;8773;43.300;0.394;2023-03-22T00:11:22;99729.59;;;10.10;65.03
17311;BME280;8773;43.300;0.394;2023-03-22T00:13:51;99730.13;;;9.96;66.02
17311;BME280;8773;43.300;0.394;2023-03-22T00:16:20;99731.41;;;9.92;65.68
17311;BME280;8773;43.300;0.394;2023-03-22T00:18:49;99723.41;;;9.92;66.16
17311;BME280;8773;43.300;0.394;2023-03-22T00:21:17;99723.69;;;9.89;66.14
17311;BME280;8773;43.300;0.394;2023-03-22T00:23:45;99723.28;;;9.84;66.13
17311;BME280;8773;43.300;0.394;2023-03-22T00:26:15;99713.25;;;9.78;65.93
17311;BME280;8773;43.300;0.394;2023-03-22T00:28:43;99706.41;;;9.75;65.66
17311;BME280;8773;43.300;0.394;2023-03-22T00:31:11;99707.09;;;9.77;65.50
17311;BME280;8773;43.300;0.394;2023-03-22T00:33:39;99702.09;;;9.82;65.66
17311;BME280;8773;43.300;0.394;2023-03-22T00:36:09;99698.16;;;9.68;65.65
17311;BME280;8773;43.300;0.394;2023-03-22T00:38:37;99694.88;;;9.57;66.69
17311;BME280;8773;43.300;0.394;2023-03-22T00:41:11;99687.00;;;9.55;66.58
17311;BME280;8773;43.300;0.394;2023-03-22T00:43:41;99681.00;;;9.53;66.86
17311;BME280;8773;43.300;0.394;2023-03-22T00:46:11;99670.84;;;9.39;66.97
17311;BME280;8773;43.300;0.394;2023-03-22T00:48:39;99667.56;;;9.27;67.70
17311;BME280;8773;43.300;0.394;2023-03-22T00:51:07;99664.91;;;9.27;67.52
17311;BME280;8773;43.300;0.394;2023-03-22T00:53:35;99667.03;;;9.24;67.20
17311;BME280;8773;43.300;0.394;2023-03-22T00:56:08;99657.50;;;9.21;67.75
17311;BME280;8773;43.300;0.394;2023-03-22T00:58:41;99653.38;;;9.09;67.86
17311;BME280;8773;43.300;0.394;2023-03-22T01:01:10;99656.88;;;9.09;67.51
17311;BME280;8773;43.300;0.394;2023-03-22T01:03:40;99652.53;;;9.08;67.37
17311;BME280;8773;43.300;0.394;2023-03-22T01:06:10;99643.44;;;9.01;67.61
17311;BME280;8773;43.300;0.394;2023-03-22T01:08:38;99648.06;;;8.99;67.62
17311;BME280;8773;43.300;0.394;2023-03-22T01:11:06;99640.00;;;8.91;68.05
17311;BME280;8773;43.300;0.394;2023-03-22T01:13:35;99642.75;;;8.99;67.82
17311;BME280;8773;43.300;0.394;2023-03-22T01:16:06;99638.56;;;8.97;67.96
17311;BME280;8773;43.300;0.394;2023-03-22T01:18:35;99632.50;;;9.04;67.37
17311;BME280;8773;43.300;0.394;2023-03-22T01:21:04;99628.16;;;9.03;67.21
17311;BME280;8773;43.300;0.394;2023-03-22T01:23:32;99622.84;;;9.03;67.06
17311;BME280;8773;43.300;0.394;2023-03-22T01:26:01;99617.25;;;8.97;67.67
17311;BME280;8773;43.300;0.394;2023-03-22T01:28:29;99620.06;;;8.95;67.38
17311;BME280;8773;43.300;0.394;2023-03-22T01:31:00;99610.63;;;8.83;67.73
17311;BME280;8773;43.300;0.394;2023-03-22T01:33:30;99605.31;;;8.83;67.73
17311;BME280;8773;43.300;0.394;2023-03-22T01:35:58;99601.00;;;8.72;68.11
17311;BME280;8773;43.300;0.394;2023-03-22T01:38:26;99588.72;;;8.62;68.29
17311;BME280;8773;43.300;0.394;2023-03-22T01:40:54;99595.47;;;8.56;68.59
17311;BME280;8773;43.300;0.394;2023-03-22T01:43:22;99585.66;;;8.57;68.28
17311;BME280;8773;43.300;0.394;2023-03-22T01:45:51;99586.06;;;8.62;68.75
17311;BME280;8773;43.300;0.394;2023-03-22T01:48:24;99592.75;;;8.66;68.28
17311;BME280;8773;43.300;0.394;2023-03-22T01:51:04;99586.06;;;8.62;68.27
17311;BME280;8773;43.300;0.394;2023-03-22T01:53:37;99587.47;;;8.56;68.31
17311;BME280;8773;43.300;0.394;2023-03-22T01:56:07;99592.06;;;8.64;68.59
17311;BME280;8773;43.300;0.394;2023-03-22T01:58:37;99582.56;;;8.61;68.57
17311;BME280;8773;43.300;0.394;2023-03-22T02:01:07;99599.06;;;8.37;69.18
17311;BME280;8773;43.300;0.394;2023-03-22T02:03:44;99591.44;;;7.76;71.42
17311;BME280;8773;43.300;0.394;2023-03-22T02:06:16;99589.38;;;7.61;71.93
17311;BME280;8773;43.300;0.394;2023-03-22T02:08:44;99595.50;;;7.81;70.82
17311;BME280;8773;43.300;0.394;2023-03-22T02:11:15;99582.50;;;7.68;71.43
17311;BME280;8773;43.300;0.394;2023-03-22T02:13:59;99582.50;;;7.87;71.19
17311;BME280;8773;43.300;0.394;2023-03-22T02:16:40;99590.88;;;8.02;70.06
17311;BME280;8773;43.300;0.394;2023-03-22T02:22:44;99586.44;;;8.39;68.69
17311;BME280;8773;43.300;0.394;2023-03-22T02:25:46;99578.25;;;8.51;68.63
17311;BME280;8773;43.300;0.394;2023-03-22T02:28:34;99579.63;;;8.55;68.47
17311;BME280;8773;43.300;0.394;2023-03-22T02:31:16;99580.03;;;8.60;68.14
17311;BME280;8773;43.300;0.394;2023-03-22T02:34:17;99571.66;;;8.55;67.95
17311;BME280;8773;43.300;0.394;2023-03-22T02:37:10;99571.94;;;8.52;67.75
17311;BME280;8773;43.300;0.394;2023-03-22T02:39:49;99574.59;;;8.52;68.16
17311;BME280;8773;43.300;0.394;2023-03-22T02:42:30;99570.75;;;8.46;68.29
17311;BME280;8773;43.300;0.394;2023-03-22T02:45:08;99566.25;;;8.47;67.87
17311;BME280;8773;43.300;0.394;2023-03-22T02:47:40;99568.78;;;8.48;67.15
17311;BME280;8773;43.300;0.394;2023-03-22T02:50:13;99573.78;;;8.51;67.13
17311;BME280;8773;43.300;0.394;2023-03-22T02:52:45;99576.28;;;8.53;67.26
17311;BME280;8773;43.300;0.394;2023-03-22T02:55:20;99566.56;;;8.43;67.29
17311;BME280;8773;43.300;0.394;2023-03-22T02:57:54;99571.91;;;8.34;67.58
17311;BME280;8773;43.300;0.394;2023-03-22T03:00:24;99564.06;;;8.32;67.72
17311;BME280;8773;43.300;0.394;2023-03-22T03:02:53;99564.09;;;8.13;68.31
17311;BME280;8773;43.300;0.394;2023-03-22T03:05:27;99565.34;;;8.19;68.27
17311;BME280;8773;43.300;0.394;2023-03-22T03:07:59;99572.19;;;8.21;67.96
17311;BME280;8773;43.300;0.394;2023-03-22T03:10:31;99567.56;;;8.23;68.29
17311;BME280;8773;43.300;0.394;2023-03-22T03:13:00;99563.38;;;8.11;68.27
17311;BME280;8773;43.300;0.394;2023-03-22T03:15:28;99564.09;;;8.13;67.85
17311;BME280;8773;43.300;0.394;2023-03-22T03:18:10;99559.88;;;8.20;67.84
17311;BME280;8773;43.300;0.394;2023-03-22T03:20:54;99557.47;;;8.27;67.93
17311;BME280;8773;43.300;0.394;2023-03-22T03:23:33;99551.06;;;8.29;67.78
17311;BME280;8773;43.300;0.394;2023-03-22T03:26:11;99553.28;;;8.24;67.70
17311;BME280;8773;43.300;0.394;2023-03-22T03:28:47;99543.09;;;8.10;68.36
17311;BME280;8773;43.300;0.394;2023-03-22T03:31:29;99545.47;;;8.13;67.66
17311;BME280;8773;43.300;0.394;2023-03-22T03:34:04;99543.38;;;8.07;67.60
17311;BME280;8773;43.300;0.394;2023-03-22T03:36:36;99542.97;;;8.11;67.92
17311;BME280;8773;43.300;0.394;2023-03-22T03:39:09;99548.97;;;8.14;67.44
17311;BME280;8773;43.300;0.394;2023-03-22T03:41:41;99544.19;;;8.17;68.01
17311;BME280;8773;43.300;0.394;2023-03-22T03:44:12;99537.19;;;8.16;67.48
17311;BME280;8773;43.300;0.394;2023-03-22T03:46:41;99542.88;;;7.94;69.03
17311;BME280;8773;43.300;0.394;2023-03-22T03:49:11;99542.59;;;7.97;68.70
17311;BME280;8773;43.300;0.394;2023-03-22T03:51:46;99540.94;;;7.76;68.62
17311;BME280;8773;43.300;0.394;2023-03-22T03:54:15;99545.03;;;7.71;68.98
17311;BME280;8773;43.300;0.394;2023-03-22T03:56:44;99536.53;;;7.29;71.12
17311;BME280;8773;43.300;0.394;2023-03-22T03:59:14;99543.53;;;7.49;70.05
17311;BME280;8773;43.300;0.394;2023-03-22T04:01:43;99532.06;;;7.58;69.69
17311;BME280;8773;43.300;0.394;2023-03-22T04:04:17;99541.25;;;7.73;68.89
17311;BME280;8773;43.300;0.394;2023-03-22T04:06:53;99536.47;;;7.87;68.98
17311;BME280;8773;43.300;0.394;2023-03-22T04:09:23;99522.16;;;7.97;68.54
17311;BME280;8773;43.300;0.394;2023-03-22T04:11:54;99516.72;;;7.99;68.45
17311;BME280;8773;43.300;0.394;2023-03-22T04:14:23;99521.03;;;8.00;68.08
17311;BME280;8773;43.300;0.394;2023-03-22T04:16:52;99527.19;;;8.00;68.85
17311;BME280;8773;43.300;0.394;2023-03-22T04:19:21;99522.47;;;7.94;68.54
17311;BME280;8773;43.300;0.394;2023-03-22T04:21:49;99529.34;;;7.77;68.14
17311;BME280;8773;43.300;0.394;2023-03-22T04:24:19;99525.34;;;7.54;69.69
17311;BME280;8773;43.300;0.394;2023-03-22T04:26:47;99529.97;;;7.14;71.00
17311;BME280;8773;43.300;0.394;2023-03-22T04:29:16;99523.00;;;7.13;71.38
17311;BME280;8773;43.300;0.394;2023-03-22T04:31:44;99511.78;;;7.28;71.01
17311;BME280;8773;43.300;0.394;2023-03-22T04:34:12;99515.28;;;7.38;70.38
17311;BME280;8773;43.300;0.394;2023-03-22T04:36:40;99507.03;;;7.51;69.58
17311;BME280;8773;43.300;0.394;2023-03-22T04:39:11;99508.84;;;7.51;69.33
17311;BME280;8773;43.300;0.394;2023-03-22T04:41:39;99517.22;;;7.56;69.56
17311;BME280;8773;43.300;0.394;2023-03-22T04:44:07;99506.59;;;7.56;69.24
17311;BME280;8773;43.300;0.394;2023-03-22T04:46:36;99503.94;;;7.56;69.58
17311;BME280;8773;43.300;0.394;2023-03-22T04:49:05;99510.09;;;7.56;69.39
17311;BME280;8773;43.300;0.394;2023-03-22T04:51:33;99513.44;;;7.58;68.65
17311;BME280;8773;43.300;0.394;2023-03-22T04:54:01;99504.50;;;7.59;69.06
17311;BME280;8773;43.300;0.394;2023-03-22T04:56:29;99510.50;;;7.61;68.21
17311;BME280;8773;43.300;0.394;2023-03-22T04:58:57;99509.63;;;7.70;68.22
17311;BME280;8773;43.300;0.394;2023-03-22T05:01:25;99516.47;;;7.73;68.55
17311;BME280;8773;43.300;0.394;2023-03-22T05:03:55;99509.63;;;7.70;68.90
17311;BME280;8773;43.300;0.394;2023-03-22T05:06:23;99515.38;;;7.66;68.47
17311;BME280;8773;43.300;0.394;2023-03-22T05:08:51;99522.22;;;7.68;67.95
17311;BME280;8773;43.300;0.394;2023-03-22T05:11:19;99514.66;;;7.73;67.97
17311;BME280;8773;43.300;0.394;2023-03-22T05:13:47;99520.09;;;7.82;67.54
17311;BME280;8773;43.300;0.394;2023-03-22T05:16:15;99517.78;;;7.59;68.14
17311;BME280;8773;43.300;0.394;2023-03-22T05:18:43;99508.00;;;7.60;67.62
17311;BME280;8773;43.300;0.394;2023-03-22T05:21:14;99506.28;;;7.68;67.64
17311;BME280;8773;43.300;0.394;2023-03-22T05:23:43;99507.13;;;7.69;67.24
17311;BME280;8773;43.300;0.394;2023-03-22T05:26:12;99508.38;;;7.74;67.16
17311;BME280;8773;43.300;0.394;2023-03-22T05:28:42;99499.97;;;7.69;67.99
17311;BME280;8773;43.300;0.394;2023-03-22T05:31:10;99505.44;;;7.77;67.53
17311;BME280;8773;43.300;0.394;2023-03-22T05:33:40;99510.47;;;7.81;66.55
17311;BME280;8773;43.300;0.394;2023-03-22T05:36:09;99504.00;;;7.83;66.60
17311;BME280;8773;43.300;0.394;2023-03-22T05:38:39;99508.78;;;7.80;67.35
17311;BME280;8773;43.300;0.394;2023-03-22T05:41:07;99502.34;;;7.72;66.69
17311;BME280;8773;43.300;0.394;2023-03-22T05:43:36;99510.09;;;7.37;68.08
17311;BME280;8773;43.300;0.394;2023-03-22T05:46:05;99507.72;;;7.53;67.70
17311;BME280;8773;43.300;0.394;2023-03-22T05:48:33;99504.59;;;7.67;67.68
17311;BME280;8773;43.300;0.394;2023-03-22T05:51:03;99513.25;;;7.79;67.38
17311;BME280;8773;43.300;0.394;2023-03-22T05:53:32;99503.72;;;7.86;67.23
17311;BME280;8773;43.300;0.394;2023-03-22T05:56:01;99512.34;;;7.61;67.59
17311;BME280;8773;43.300;0.394;2023-03-22T05:58:31;99509.91;;;7.77;67.01
17311;BME280;8773;43.300;0.394;2023-03-22T06:01:04;99512.13;;;7.91;67.03
17311;BME280;8773;43.300;0.394;2023-03-22T06:03:33;99501.31;;;8.02;66.55
17311;BME280;8773;43.300;0.394;2023-03-22T06:06:01;99505.78;;;8.02;66.99
17311;BME280;8773;43.300;0.394;2023-03-22T06:08:32;99506.78;;;8.01;66.88
17311;BME280;8773;43.300;0.394;2023-03-22T06:11:03;99492.84;;;7.80;67.13
17311;BME280;8773;43.300;0.394;2023-03-22T06:13:32;99510.00;;;7.95;66.50
17311;BME280;8773;43.300;0.394;2023-03-22T06:16:00;99506.47;;;8.04;67.19
17311;BME280;8773;43.300;0.394;2023-03-22T06:18:29;99511.59;;;8.15;66.06
17311;BME280;8773;43.300;0.394;2023-03-22T06:20:58;99510.47;;;8.18;65.33
17311;BME280;8773;43.300;0.394;2023-03-22T06:23:27;99511.59;;;8.15;65.49
17311;BME280;8773;43.300;0.394;2023-03-22T06:25:55;99506.56;;;8.12;66.13
17311;BME280;8773;43.300;0.394;2023-03-22T06:28:24;99515.09;;;8.16;66.06
17311;BME280;8773;43.300;0.394;2023-03-22T06:30:55;99517.13;;;8.04;66.30
17311;BME280;8773;43.300;0.394;2023-03-22T06:33:23;99505.88;;;8.10;66.44
17311;BME280;8773;43.300;0.394;2023-03-22T06:35:51;99513.34;;;7.97;66.17
17311;BME280;8773;43.300;0.394;2023-03-22T06:38:19;99508.31;;;8.03;66.30
17311;BME280;8773;43.300;0.394;2023-03-22T06:40:47;99512.88;;;8.11;65.95
17311;BME280;8773;43.300;0.394;2023-03-22T06:43:15;99511.03;;;8.11;65.49
17311;BME280;8773;43.300;0.394;2023-03-22T06:45:46;99506.81;;;8.19;65.89
17311;BME280;8773;43.300;0.394;2023-03-22T06:48:14;99512.97;;;8.19;65.18
17311;BME280;8773;43.300;0.394;2023-03-22T06:50:45;99506.56;;;8.12;65.92
17311;BME280;8773;43.300;0.394;2023-03-22T06:53:13;99499.56;;;8.11;65.14
17311;BME280;8773;43.300;0.394;2023-03-22T06:55:41;99502.19;;;8.21;65.74
17311;BME280;8773;43.300;0.394;2023-03-22T06:58:09;99497.41;;;8.34;65.51
17311;BME280;8773;43.300;0.394;2023-03-22T07:00:38;99490.09;;;8.46;65.27
17311;BME280;8773;43.300;0.394;2023-03-22T07:03:07;99484.63;;;8.65;64.48
17311;BME280;8773;43.300;0.394;2023-03-22T07:05:38;99484.97;;;8.80;63.80
17311;BME280;8773;43.300;0.394;2023-03-22T07:08:06;99483.75;;;8.92;63.82
17311;BME280;8773;43.300;0.394;2023-03-22T07:10:35;99474.00;;;9.00;63.37
17311;BME280;8773;43.300;0.394;2023-03-22T07:13:03;99481.00;;;9.19;62.78
17311;BME280;8773;43.300;0.394;2023-03-22T07:15:32;99472.47;;;9.16;62.33
17311;BME280;8773;43.300;0.394;2023-03-22T07:18:01;99469.44;;;9.10;62.99
17311;BME280;8773;43.300;0.394;2023-03-22T07:20:30;99485.47;;;9.36;61.93
17311;BME280;8773;43.300;0.394;2023-03-22T07:23:02;99476.63;;;9.54;60.87
17311;BME280;8773;43.300;0.394;2023-03-22T07:25:30;99474.63;;;9.56;61.24
17311;BME280;8773;43.300;0.394;2023-03-22T07:27:58;99479.81;;;9.39;60.48
17311;BME280;8773;43.300;0.394;2023-03-22T07:30:26;99475.59;;;9.72;60.09
17311;BME280;8773;43.300;0.394;2023-03-22T07:32:55;99469.13;;;10.43;59.53
17311;BME280;8773;43.300;0.394;2023-03-22T07:35:23;99476.09;;;11.02;57.52
17311;BME280;8773;43.300;0.394;2023-03-22T07:37:53;99467.25;;;11.59;55.53
17311;BME280;8773;43.300;0.394;2023-03-22T07:40:22;99467.66;;;12.11;54.49
17311;BME280;8773;43.300;0.394;2023-03-22T07:42:50;99457.59;;;12.60;51.60
17311;BME280;8773;43.300;0.394;2023-03-22T07:45:21;99459.38;;;12.76;50.96
17311;BME280;8773;43.300;0.394;2023-03-22T07:47:50;99455.66;;;13.00;51.05
17311;BME280;8773;43.300;0.394;2023-03-22T07:50:18;99455.91;;;13.13;50.24
17311;BME280;8773;43.300;0.394;2023-03-22T07:52:46;99465.09;;;13.19;50.76
17311;BME280;8773;43.300;0.394;2023-03-22T07:55:16;99463.94;;;12.90;50.02
17311;BME280;8773;43.300;0.394;2023-03-22T07:57:44;99458.00;;;13.03;50.70
17311;BME280;8773;43.300;0.394;2023-03-22T08:00:13;99466.09;;;12.95;50.85
17311;BME280;8773;43.300;0.394;2023-03-22T08:02:41;99461.81;;;13.08;50.32
17311;BME280;8773;43.300;0.394;2023-03-22T08:05:11;99456.19;;;12.95;50.69
17311;BME280;8773;43.300;0.394;2023-03-22T08:07:42;99455.63;;;12.54;49.88
17311;BME280;8773;43.300;0.394;2023-03-22T08:10:13;99456.81;;;12.52;49.99
17311;BME280;8773;43.300;0.394;2023-03-22T08:12:42;99466.44;;;12.30;50.45
17311;BME280;8773;43.300;0.394;2023-03-22T08:15:11;99466.00;;;12.49;50.20
17311;BME280;8773;43.300;0.394;2023-03-22T08:17:39;99452.25;;;13.29;49.29
17311;BME280;8773;43.300;0.394;2023-03-22T08:20:08;99444.84;;;13.54;47.42
17311;BME280;8773;43.300;0.394;2023-03-22T08:22:36;99459.91;;;13.92;47.91
17311;BME280;8773;43.300;0.394;2023-03-22T08:25:04;99457.13;;;14.15;46.68
17311;BME280;8773;43.300;0.394;2023-03-22T08:27:32;99461.09;;;14.19;46.93
17311;BME280;8773;43.300;0.394;2023-03-22T08:30:03;99454.41;;;14.45;47.24
17311;BME280;8773;43.300;0.394;2023-03-22T08:32:32;99451.72;;;14.45;46.46
17311;BME280;8773;43.300;0.394;2023-03-22T08:35:00;99453.69;;;14.51;47.15
17311;BME280;8773;43.300;0.394;2023-03-22T08:37:28;99451.72;;;14.45;46.79
17311;BME280;8773;43.300;0.394;2023-03-22T08:39:57;99447.56;;;14.27;45.53
17311;BME280;8773;43.300;0.394;2023-03-22T08:42:25;99442.22;;;14.63;46.64
17311;BME280;8773;43.300;0.394;2023-03-22T08:44:53;99448.03;;;14.96;45.21
17311;BME280;8773;43.300;0.394;2023-03-22T08:47:22;99443.38;;;15.33;45.86
17311;BME280;8773;43.300;0.394;2023-03-22T08:49:50;99447.50;;;15.78;44.65
17311;BME280;8773;43.300;0.394;2023-03-22T08:52:18;99443.63;;;16.22;43.50
17311;BME280;8773;43.300;0.394;2023-03-22T08:54:46;99440.38;;;16.39;42.62
17311;BME280;8773;43.300;0.394;2023-03-22T08:57:14;99445.31;;;16.70;42.03
17311;BME280;8773;43.300;0.394;2023-03-22T08:59:42;99446.78;;;16.86;41.28
17311;BME280;8773;43.300;0.394;2023-03-22T09:02:10;99433.34;;;16.99;39.55
17311;BME280;8773;43.300;0.394;2023-03-22T09:04:40;99442.06;;;17.21;40.48
17311;BME280;8773;43.300;0.394;2023-03-22T09:07:08;99437.94;;;17.45;39.88
17311;BME280;8773;43.300;0.394;2023-03-22T09:09:36;99433.59;;;17.64;39.62
17311;BME280;8773;43.300;0.394;2023-03-22T09:12:05;99438.56;;;17.80;39.81
17311;BME280;8773;43.300;0.394;2023-03-22T09:14:33;99429.44;;;17.75;38.59
17311;BME280;8773;43.300;0.394;2023-03-22T09:17:01;99438.78;;;17.59;38.09
17311;BME280;8773;43.300;0.394;2023-03-22T09:19:29;99436.91;;;17.59;38.18
17311;BME280;8773;43.300;0.394;2023-03-22T09:21:59;99449.34;;;17.60;38.23
17311;BME280;8773;43.300;0.394;2023-03-22T09:24:27;99450.63;;;17.71;38.38
17311;BME280;8773;43.300;0.394;2023-03-22T09:26:55;99452.28;;;17.79;38.15
17311;BME280;8773;43.300;0.394;2023-03-22T09:29:24;99452.69;;;17.89;37.28
17311;BME280;8773;43.300;0.394;2023-03-22T09:31:52;99451.00;;;18.01;38.13
17311;BME280;8773;43.300;0.394;2023-03-22T09:34:20;99452.38;;;18.30;38.44
17311;BME280;8773;43.300;0.394;2023-03-22T09:36:51;99456.72;;;18.38;36.39
17311;BME280;8773;43.300;0.394;2023-03-22T09:39:24;99454.31;;;18.67;36.11
17311;BME280;8773;43.300;0.394;2023-03-22T09:41:56;99460.72;;;18.80;34.53
17311;BME280;8773;43.300;0.394;2023-03-22T09:44:29;99454.13;;;19.00;36.00
17311;BME280;8773;43.300;0.394;2023-03-22T09:47:00;99459.69;;;19.12;34.34
17311;BME280;8773;43.300;0.394;2023-03-22T09:49:35;99458.09;;;19.36;35.39
17311;BME280;8773;43.300;0.394;2023-03-22T09:52:18;99461.47;;;19.81;33.29
17311;BME280;8773;43.300;0.394;2023-03-22T09:54:48;99443.88;;;20.15;32.99
17311;BME280;8773;43.300;0.394;2023-03-22T09:57:22;99452.88;;;20.27;33.13
17311;BME280;8773;43.300;0.394;2023-03-22T09:59:57;99441.06;;;20.58;33.73
17311;BME280;8773;43.300;0.394;2023-03-22T10:02:42;99439.56;;;20.74;31.36
17311;BME280;8773;43.300;0.394;2023-03-22T10:05:19;99443.16;;;20.86;32.00
17311;BME280;8773;43.300;0.394;2023-03-22T10:10:49;99446.16;;;21.26;30.72
17311;BME280;8773;43.300;0.394;2023-03-22T10:13:22;99435.31;;;21.38;29.75
17311;BME280;8773;43.300;0.394;2023-03-22T10:15:54;99441.22;;;21.35;29.14
17311;BME280;8773;43.300;0.394;2023-03-22T10:18:26;99444.66;;;21.42;30.55
17311;BME280;8773;43.300;0.394;2023-03-22T10:20:59;99447.97;;;21.44;30.69
17311;BME280;8773;43.300;0.394;2023-03-22T10:23:31;99448.34;;;21.48;28.85
17311;BME280;8773;43.300;0.394;2023-03-22T10:26:04;99447.50;;;21.59;28.57
17311;BME280;8773;43.300;0.394;2023-03-22T10:28:37;99461.44;;;21.62;28.28
17311;BME280;8773;43.300;0.394;2023-03-22T10:31:12;99456.00;;;21.62;27.12
17311;BME280;8773;43.300;0.394;2023-03-22T10:41:17;99459.78;;;21.38;nan
17311;BME280;8773;43.300;0.394;2023-03-22T10:43:50;99456.59;;;21.53;nan
17311;BME280;8773;43.300;0.394;2023-03-22T10:46:22;99451.50;;;21.56;nan
17311;BME280;8773;43.300;0.394;2023-03-22T10:48:53;99457.88;;;21.50;nan
17311;BME280;8773;43.300;0.394;2023-03-22T10:51:28;99465.09;;;21.56;nan
17311;BME280;8773;43.300;0.394;2023-03-22T10:53:58;99453.53;;;21.49;nan
17311;BME280;8773;43.300;0.394;2023-03-22T10:56:28;99449.75;;;21.62;nan
17311;BME280;8773;43.300;0.394;2023-03-22T10:58:56;99449.94;;;21.79;nan
17311;BME280;8773;43.300;0.394;2023-03-22T11:01:27;99448.97;;;21.85;nan
17311;BME280;8773;43.300;0.394;2023-03-22T11:03:58;99442.69;;;21.96;nan
17311;BME280;8773;43.300;0.394;2023-03-22T11:06:28;99448.13;;;21.96;nan
17311;BME280;8773;43.300;0.394;2023-03-22T11:08:59;99442.38;;;21.81;nan
17311;BME280;8773;43.300;0.394;2023-03-22T11:11:33;99450.41;;;21.76;nan
17311;BME280;8773;43.300;0.394;2023-03-22T11:14:05;99448.97;;;21.96;nan
17311;BME280;8773;43.300;0.394;2023-03-22T11:16:42;99440.69;;;22.03;nan
17311;BME280;8773;43.300;0.394;2023-03-22T11:19:14;99435.50;;;21.90;nan
17311;BME280;8773;43.300;0.394;2023-03-22T11:21:44;99442.72;;;21.84;nan
17311;BME280;8773;43.300;0.394;2023-03-22T11:24:13;99439.00;;;21.44;nan
17311;BME280;8773;43.300;0.394;2023-03-22T11:27:01;99441.59;;;21.50;nan
17311;BME280;8773;43.300;0.394;2023-03-22T11:29:39;99425.59;;;21.84;nan
17311;BME280;8773;43.300;0.394;2023-03-22T11:32:20;99428.19;;;21.90;nan
17311;BME280;8773;43.300;0.394;2023-03-22T11:34:58;99430.59;;;21.57;nan
17311;BME280;8773;43.300;0.394;2023-03-22T11:37:26;99427.03;;;21.21;nan
17311;BME280;8773;43.300;0.394;2023-03-22T11:39:59;99419.75;;;21.45;nan
17311;BME280;8773;43.300;0.394;2023-03-22T11:42:28;99411.00;;;21.55;nan
17311;BME280;8773;43.300;0.394;2023-03-22T11:45:00;99414.84;;;21.89;nan
17311;BME280;8773;43.300;0.394;2023-03-22T11:47:34;99411.97;;;22.07;nan
17311;BME280;8773;43.300;0.394;2023-03-22T11:50:06;99404.44;;;22.49;nan
17311;BME280;8773;43.300;0.394;2023-03-22T11:52:36;99395.75;;;22.64;nan
17311;BME280;8773;43.300;0.394;2023-03-22T11:55:04;99399.09;;;22.54;nan
17311;BME280;8773;43.300;0.394;2023-03-22T11:57:34;99403.94;;;22.81;nan
17311;BME280;8773;43.300;0.394;2023-03-22T12:00:07;99404.13;;;22.74;nan
17311;BME280;8773;43.300;0.394;2023-03-22T12:02:45;99401.38;;;22.46;nan
17311;BME280;8773;43.300;0.394;2023-03-22T12:05:19;99392.97;;;22.47;nan
17311;BME280;8773;43.300;0.394;2023-03-22T12:07:52;99399.56;;;22.51;nan
17311;BME280;8773;43.300;0.394;2023-03-22T12:10:25;99398.81;;;22.27;nan
17311;BME280;8773;43.300;0.394;2023-03-22T12:12:59;99403.84;;;22.47;nan
17311;BME280;8773;43.300;0.394;2023-03-22T12:15:30;99399.44;;;22.58;nan
17311;BME280;8773;43.300;0.394;2023-03-22T12:18:04;99396.00;;;22.62;nan
17311;BME280;8773;43.300;0.394;2023-03-22T12:20:39;99395.34;;;22.44;nan
17311;BME280;8773;43.300;0.394;2023-03-22T12:23:12;99398.81;;;22.16;nan
17311;BME280;8773;43.300;0.394;2023-03-22T12:25:45;99398.84;;;22.04;nan
17311;BME280;8773;43.300;0.394;2023-03-22T12:28:17;99395.69;;;21.84;nan
17311;BME280;8773;43.300;0.394;2023-03-22T12:30:48;99402.03;;;22.01;nan
17311;BME280;8773;43.300;0.394;2023-03-22T12:33:21;99399.31;;;22.01;nan
17311;BME280;8773;43.300;0.394;2023-03-22T12:35:58;99405.94;;;22.05;nan
17311;BME280;8773;43.300;0.394;2023-03-22T12:38:34;99391.75;;;22.03;nan
17311;BME280;8773;43.300;0.394;2023-03-22T12:41:08;99391.53;;;21.93;nan
17311;BME280;8773;43.300;0.394;2023-03-22T12:43:43;99397.84;;;22.34;nan
17311;BME280;8773;43.300;0.394;2023-03-22T12:46:17;99391.13;;;22.24;nan
17311;BME280;8773;43.300;0.394;2023-03-22T12:48:49;99390.69;;;22.04;nan
17311;BME280;8773;43.300;0.394;2023-03-22T12:51:18;99378.72;;;22.17;nan
17311;BME280;8773;43.300;0.394;2023-03-22T12:53:48;99378.47;;;22.30;nan
17311;BME280;8773;43.300;0.394;2023-03-22T12:56:20;99379.31;;;22.19;nan
17311;BME280;8773;43.300;0.394;2023-03-22T12:58:54;99371.03;;;22.25;nan
17311;BME280;8773;43.300;0.394;2023-03-22T13:01:30;99367.22;;;22.38;nan
17311;BME280;8773;43.300;0.394;2023-03-22T13:04:28;99358.78;;;21.99;nan
17311;BME280;8773;43.300;0.394;2023-03-22T13:07:08;99352.22;;;22.36;nan
17311;BME280;8773;43.300;0.394;2023-03-22T13:09:40;99353.38;;;22.40;nan
17311;BME280;8773;43.300;0.394;2023-03-22T13:12:28;99349.09;;;22.72;nan
17311;BME280;8773;43.300;0.394;2023-03-22T13:14:59;99348.38;;;22.77;nan
17311;BME280;8773;43.300;0.394;2023-03-22T13:17:40;99341.63;;;22.51;nan
17311;BME280;8773;43.300;0.394;2023-03-22T13:20:28;99346.72;;;22.92;nan
17311;BME280;8773;43.300;0.394;2023-03-22T13:23:00;99342.41;;;23.08;nan
17311;BME280;8773;43.300;0.394;2023-03-22T13:25:33;99330.16;;;22.49;nan
17311;BME280;8773;43.300;0.394;2023-03-22T13:28:09;99328.28;;;22.38;nan
17311;BME280;8773;43.300;0.394;2023-03-22T13:30:48;99327.81;;;22.86;nan
17311;BME280;8773;43.300;0.394;2023-03-22T13:33:20;99332.56;;;22.62;nan
17311;BME280;8773;43.300;0.394;2023-03-22T13:35:54;99328.06;;;22.84;nan
17311;BME280;8773;43.300;0.394;2023-03-22T13:38:26;99322.13;;;22.71;nan
17311;BME280;8773;43.300;0.394;2023-03-22T13:41:02;99322.03;;;22.82;nan
17311;BME280;8773;43.300;0.394;2023-03-22T13:43:33;99323.25;;;22.58;nan
17311;BME280;8773;43.300;0.394;2023-03-22T13:46:26;99319.41;;;22.71;nan
17311;BME280;8773;43.300;0.394;2023-03-22T13:49:24;99328.91;;;23.02;nan
17311;BME280;8773;43.300;0.394;2023-03-22T13:51:58;99326.69;;;22.98;nan
17311;BME280;8773;43.300;0.394;2023-03-22T13:54:33;99330.94;;;22.61;nan
17311;BME280;8773;43.300;0.394;2023-03-22T13:57:03;99335.91;;;22.97;nan
17311;BME280;8773;43.300;0.394;2023-03-22T14:01:25;99331.22;;;23.26;28.37